Time;durP1;ratioP1;P1;durP2;ratioP2;P2;SDS_P1;SDS_P2;PMS_P1;PMS_P2;Temp;Humidity;BMP_temperature;BMP_pressure;BME280_temperature;BME280_humidity;BME280_pressure;Samples;Min_cycle;Max_cycle;Signal;HPM_P1;HPM_P2
2022/04/14 00:01:54;;;;;;;18.13;9.50;;;9.70;99.90;;;;;;5033614;28;20125;-80
2022/04/14 00:04:20;;;;;;;20.58;8.80;;;9.70;99.90;;;;;;5033821;28;20128;-79
2022/04/14 00:06:45;;;;;;;12.18;7.72;;;9.70;99.90;;;;;;5033148;28;20444;-79
2022/04/14 00:09:11;;;;;;;21.58;8.15;;;9.70;99.90;;;;;;5032879;28;20511;-80
2022/04/14 00:11:38;;;;;;;17.40;8.68;;;9.80;99.90;;;;;;5015930;28;20041;-80
2022/04/14 00:14:04;;;;;;;15.57;8.18;;;9.70;99.90;;;;;;5033571;28;20392;-80
2022/04/14 00:16:30;;;;;;;19.52;8.88;;;9.60;99.90;;;;;;5033324;28;20041;-81
2022/04/14 00:18:56;;;;;;;20.60;8.85;;;9.70;99.90;;;;;;5033623;28;20067;-81
2022/04/14 00:21:21;;;;;;;24.85;8.88;;;9.60;99.90;;;;;;5033451;28;20116;-80
2022/04/14 00:23:47;;;;;;;18.33;8.45;;;9.60;99.90;;;;;;5033475;28;20034;-79
2022/04/14 00:26:12;;;;;;;14.32;8.32;;;9.60;99.90;;;;;;5033335;28;20041;-79
2022/04/14 00:28:38;;;;;;;20.83;8.45;;;9.60;99.90;;;;;;5033055;28;20116;-80
2022/04/14 00:31:04;;;;;;;15.73;8.88;;;9.50;99.90;;;;;;5033490;28;20103;-80
2022/04/14 00:33:30;;;;;;;21.02;8.88;;;9.50;99.90;;;;;;5016149;28;20403;-80
2022/04/14 00:35:56;;;;;;;23.10;9.57;;;9.50;99.90;;;;;;5033531;28;20587;-80
2022/04/14 00:38:21;;;;;;;22.48;10.00;;;9.50;99.90;;;;;;5015699;28;20042;-80
2022/04/14 00:40:49;;;;;;;17.88;8.75;;;9.50;99.90;;;;;;5033437;28;20045;-81
2022/04/14 00:43:15;;;;;;;20.17;9.15;;;9.50;99.90;;;;;;5033168;28;20057;-81
2022/04/14 00:45:45;;;;;;;23.00;9.55;;;9.50;99.90;;;;;;5033259;28;20045;-80
2022/04/14 00:48:10;;;;;;;18.00;9.05;;;9.50;99.90;;;;;;5033329;28;20100;-80
2022/04/14 00:50:36;;;;;;;20.00;9.52;;;9.50;99.90;;;;;;5033326;28;20038;-80
2022/04/14 00:53:03;;;;;;;17.50;8.82;;;9.40;99.90;;;;;;5033191;28;20033;-80
2022/04/14 00:55:28;;;;;;;20.00;9.73;;;9.40;99.90;;;;;;4998846;28;20095;-80
2022/04/14 00:57:54;;;;;;;17.50;10.02;;;9.50;99.90;;;;;;5033257;28;20046;-78
2022/04/14 01:00:19;;;;;;;18.90;9.60;;;9.40;99.90;;;;;;5033065;28;20468;-80
2022/04/14 01:02:45;;;;;;;21.58;10.13;;;9.30;99.90;;;;;;5033082;28;20123;-79
2022/04/14 01:05:13;;;;;;;22.77;11.32;;;9.40;99.90;;;;;;5032708;28;20107;-80
2022/04/14 01:07:40;;;;;;;24.88;11.18;;;9.30;99.90;;;;;;5032587;28;20045;-79
2022/04/14 01:10:05;;;;;;;22.17;11.23;;;9.30;99.90;;;;;;5032669;28;20038;-79
2022/04/14 01:12:32;;;;;;;23.13;11.15;;;9.30;99.90;;;;;;5032602;28;20051;-79
2022/04/14 01:14:58;;;;;;;26.15;12.90;;;9.30;99.90;;;;;;5032902;28;20099;-79
2022/04/14 01:17:23;;;;;;;32.55;13.35;;;9.30;99.90;;;;;;5033052;28;20092;-80
2022/04/14 01:19:49;;;;;;;24.42;12.95;;;9.30;99.90;;;;;;5034755;28;20041;-80
2022/04/14 01:22:18;;;;;;;27.48;14.18;;;9.30;99.90;;;;;;5036157;28;20061;-80
2022/04/14 01:24:44;;;;;;;23.85;12.52;;;9.30;99.90;;;;;;5036246;28;20564;-80
2022/04/14 01:27:10;;;;;;;28.98;13.43;;;9.30;99.90;;;;;;5036105;28;20128;-80
2022/04/14 01:29:36;;;;;;;22.50;12.75;;;9.20;99.90;;;;;;5036392;28;20059;-80
2022/04/14 01:32:02;;;;;;;26.23;13.50;;;9.20;99.90;;;;;;5036112;28;20045;-80
2022/04/14 01:34:30;;;;;;;31.20;14.95;;;9.20;99.90;;;;;;5036200;28;20045;-80
2022/04/14 01:36:56;;;;;;;28.92;14.05;;;9.10;99.90;;;;;;5036160;28;20041;-78
2022/04/14 01:39:23;;;;;;;24.42;13.25;;;9.10;99.90;;;;;;5035930;28;20484;-80
2022/04/14 01:41:48;;;;;;;26.03;13.53;;;9.10;99.90;;;;;;5164769;22;20088;-80
2022/04/14 01:44:14;;;;;;;28.55;14.20;;;9.10;99.90;;;;;;5039950;28;20042;-81
2022/04/14 01:46:41;;;;;;;30.80;14.55;;;9.20;99.90;;;;;;5039463;28;20447;-80
2022/04/14 01:49:08;;;;;;;26.45;14.60;;;9.10;99.90;;;;;;5038938;28;20069;-81
2022/04/14 01:51:34;;;;;;;31.15;13.98;;;9.20;99.90;;;;;;5037980;28;20052;-82
2022/04/14 01:53:59;;;;;;;31.15;13.75;;;9.20;99.90;;;;;;5037050;28;20049;-81
2022/04/14 01:56:25;;;;;;;32.58;14.73;;;9.20;99.90;;;;;;5037438;28;20057;-81
2022/04/14 01:58:54;;;;;;;27.42;13.82;;;9.20;99.90;;;;;;5037915;28;20045;-81
2022/04/14 02:01:20;;;;;;;26.52;14.05;;;9.20;99.90;;;;;;5037635;28;20045;-82
2022/04/14 02:03:47;;;;;;;30.17;15.48;;;9.20;99.90;;;;;;5036231;28;20113;-82
2022/04/14 02:06:13;;;;;;;26.98;14.52;;;9.10;99.90;;;;;;5036292;28;20456;-81
2022/04/14 02:08:53;;;;;;;27.88;15.02;;;9.10;99.90;;;;;;5037622;28;20514;-82
2022/04/14 02:11:19;;;;;;;32.88;15.50;;;9.00;99.90;;;;;;5037695;28;20050;-81
2022/04/14 02:13:44;;;;;;;25.70;14.50;;;9.00;99.90;;;;;;5038057;28;20041;-82
2022/04/14 02:16:10;;;;;;;31.67;15.85;;;9.00;99.90;;;;;;5037918;28;20041;-82
2022/04/14 02:18:35;;;;;;;29.15;15.23;;;9.10;99.90;;;;;;5035870;28;20041;-81
2022/04/14 02:21:01;;;;;;;27.10;14.50;;;9.00;99.90;;;;;;5036171;28;20124;-82
2022/04/14 02:23:27;;;;;;;31.00;16.35;;;9.00;99.90;;;;;;5037452;28;20041;-81
2022/04/14 02:25:52;;;;;;;35.03;18.08;;;9.00;99.90;;;;;;5044127;28;20048;-81
2022/04/14 02:28:19;;;;;;;31.75;16.67;;;9.00;99.90;;;;;;5017516;28;20064;-82
2022/04/14 02:30:45;;;;;;;28.33;16.15;;;8.90;99.90;;;;;;5017160;28;20508;-82
2022/04/14 02:33:11;;;;;;;33.13;16.48;;;8.90;99.90;;;;;;5017115;28;20044;-82
2022/04/14 02:35:40;;;;;;;30.92;17.70;;;8.90;99.90;;;;;;5017558;28;20099;-82
2022/04/14 02:38:05;;;;;;;31.90;18.23;;;8.90;99.90;;;;;;5017253;28;20089;-81
2022/04/14 02:40:31;;;;;;;33.60;17.92;;;8.80;99.90;;;;;;5017186;28;20066;-81
2022/04/14 02:42:57;;;;;;;31.67;16.90;;;8.80;99.90;;;;;;5017065;28;20109;-81
2022/04/14 02:45:24;;;;;;;34.30;18.35;;;8.80;99.90;;;;;;5016614;28;20050;-81
2022/04/14 02:47:50;;;;;;;36.22;19.17;;;8.70;99.90;;;;;;5015662;28;20101;-82
2022/04/14 02:50:16;;;;;;;39.15;18.95;;;8.60;99.90;;;;;;5016441;28;20374;-81
2022/04/14 02:52:42;;;;;;;34.30;18.33;;;8.60;99.90;;;;;;4999531;28;20056;-81
2022/04/14 02:55:08;;;;;;;41.10;19.80;;;8.50;99.90;;;;;;5016903;28;20497;-81
2022/04/14 02:57:34;;;;;;;41.80;21.17;;;8.50;99.90;;;;;;5016827;28;20055;-82
2022/04/14 03:00:01;;;;;;;37.65;20.40;;;8.50;99.90;;;;;;5017132;28;20067;-81
2022/04/14 03:02:26;;;;;;;43.45;22.33;;;7.90;99.90;;;;;;5016693;28;20050;-81
2022/04/14 03:04:53;;;;;;;45.60;23.17;;;8.40;99.90;;;;;;5016256;28;20038;-81
2022/04/14 03:07:20;;;;;;;35.08;21.25;;;8.40;99.90;;;;;;5016612;28;20041;-81
2022/04/14 03:09:46;;;;;;;39.58;21.40;;;8.30;99.90;;;;;;5016773;28;20100;-82
2022/04/14 03:12:12;;;;;;;51.67;24.48;;;8.30;99.90;;;;;;5015641;28;20496;-82
2022/04/14 03:14:37;;;;;;;52.22;24.58;;;8.20;99.90;;;;;;5015949;28;20085;-82
2022/04/14 03:17:04;;;;;;;48.35;25.77;;;8.20;99.90;;;;;;5016548;28;20073;-82
2022/04/14 03:19:31;;;;;;;44.38;24.52;;;8.10;99.90;;;;;;5019568;28;20050;-81
2022/04/14 03:21:58;;;;;;;48.33;24.98;;;8.00;99.90;;;;;;5022186;28;20097;-81
2022/04/14 03:24:24;;;;;;;48.33;25.08;;;7.90;99.90;;;;;;5020147;28;20496;-82
2022/04/14 03:26:50;;;;;;;51.00;25.73;;;7.90;99.90;;;;;;5017355;28;20041;-82
2022/04/14 03:29:16;;;;;;;56.25;26.08;;;7.80;99.90;;;;;;5016488;28;20050;-82
2022/04/14 03:31:42;;;;;;;59.65;28.45;;;7.70;99.90;;;;;;5016673;28;20484;-82
2022/04/14 03:34:07;;;;;;;60.30;29.88;;;7.60;99.90;;;;;;5015356;28;20048;-82
2022/04/14 03:36:33;;;;;;;69.85;30.38;;;7.60;99.90;;;;;;5016319;28;20046;-82
2022/04/14 03:38:59;;;;;;;60.75;30.65;;;7.50;99.90;;;;;;5015592;28;20033;-82
2022/04/14 03:41:24;;;;;;;69.80;29.83;;;7.60;99.90;;;;;;5016172;28;20415;-81
2022/04/14 03:43:50;;;;;;;68.60;31.85;;;7.50;99.90;;;;;;5014903;28;20054;-82
2022/04/14 03:46:16;;;;;;;69.55;33.97;;;7.50;99.90;;;;;;5015794;28;20107;-82
2022/04/14 03:48:44;;;;;;;73.95;34.10;;;7.50;99.90;;;;;;5016246;28;20044;-82
2022/04/14 03:51:12;;;;;;;72.88;36.67;;;7.40;99.90;;;;;;5014729;28;20100;-82
2022/04/14 03:53:38;;;;;;;71.00;33.75;;;7.40;99.90;;;;;;5016116;28;20089;-82
2022/04/14 03:56:03;;;;;;;75.55;34.25;;;7.50;99.90;;;;;;5015897;28;20045;-82
2022/04/14 03:58:32;;;;;;;71.47;35.30;;;7.50;99.90;;;;;;5015884;28;20053;-82
2022/04/14 04:00:57;;;;;;;76.03;35.83;;;7.40;99.90;;;;;;5016041;28;20060;-82
2022/04/14 04:03:23;;;;;;;86.18;36.90;;;7.30;99.90;;;;;;5015881;28;20042;-82
2022/04/14 04:05:48;;;;;;;85.25;40.78;;;7.20;99.90;;;;;;5015273;28;20042;-82
2022/04/14 04:08:14;;;;;;;84.82;38.50;;;7.20;99.90;;;;;;5015591;28;20125;-82
2022/04/14 04:10:39;;;;;;;90.72;40.28;;;7.10;99.90;;;;;;5015057;28;20072;-82
2022/04/14 04:13:05;;;;;;;83.65;40.20;;;7.00;99.90;;;;;;5014291;28;20518;-82
2022/04/14 04:15:31;;;;;;;95.50;41.35;;;7.00;99.90;;;;;;5014261;28;20053;-82
2022/04/14 04:17:57;;;;;;;94.28;39.95;;;6.90;99.90;;;;;;5015168;28;20049;-82
2022/04/14 04:20:22;;;;;;;97.53;42.03;;;6.80;99.90;;;;;;5015237;28;20125;-82
2022/04/14 04:22:48;;;;;;;87.30;40.42;;;6.80;99.90;;;;;;5015299;28;20561;-82
2022/04/14 04:25:13;;;;;;;104.85;43.85;;;6.70;99.90;;;;;;5014611;28;20068;-82
2022/04/14 04:27:39;;;;;;;105.88;44.38;;;6.70;99.90;;;;;;5015094;28;20048;-82
2022/04/14 04:30:07;;;;;;;106.45;43.60;;;6.60;99.90;;;;;;5015272;28;20042;-82
2022/04/14 04:32:36;;;;;;;106.82;45.75;;;6.60;99.90;;;;;;5015063;28;20081;-82
2022/04/14 04:35:03;;;;;;;101.75;44.67;;;6.50;99.90;;;;;;5015379;28;20416;-82
2022/04/14 04:37:29;;;;;;;120.15;44.95;;;6.50;99.90;;;;;;5014242;28;20112;-82
2022/04/14 04:39:56;;;;;;;121.13;46.92;;;6.40;99.90;;;;;;5015149;28;20443;-81
2022/04/14 04:42:21;;;;;;;126.95;47.35;;;6.40;99.90;;;;;;5014511;28;20052;-82
2022/04/14 04:44:47;;;;;;;117.22;46.53;;;6.30;99.90;;;;;;5014870;28;20042;-82
2022/04/14 04:47:13;;;;;;;124.00;46.97;;;6.30;99.90;;;;;;5014975;28;20045;-82
2022/04/14 04:49:38;;;;;;;126.43;49.92;;;6.30;99.90;;;;;;5015454;28;20042;-82
2022/04/14 04:52:04;;;;;;;108.40;47.55;;;6.30;99.90;;;;;;5013856;28;20038;-82
2022/04/14 04:54:30;;;;;;;131.57;53.10;;;6.20;99.90;;;;;;5015512;28;20451;-82
2022/04/14 04:56:56;;;;;;;131.07;49.03;;;6.20;99.90;;;;;;5018608;28;20042;-82
2022/04/14 04:59:21;;;;;;;134.65;53.10;;;6.20;99.90;;;;;;5018816;28;20204;-82
2022/04/14 05:01:49;;;;;;;148.00;53.30;;;6.20;99.90;;;;;;5018657;28;20054;-82
2022/04/14 05:04:14;;;;;;;156.80;54.75;;;6.20;99.90;;;;;;5018557;28;20037;-82
2022/04/14 05:06:40;;;;;;;153.50;54.40;;;6.30;99.90;;;;;;5018592;28;20408;-82
2022/04/14 05:09:06;;;;;;;148.65;53.63;;;6.30;99.90;;;;;;5018508;28;20090;-82
2022/04/14 05:11:34;;;;;;;138.52;54.05;;;6.30;99.90;;;;;;5018723;28;20034;-82
2022/04/14 05:14:00;;;;;;;154.05;54.78;;;6.30;99.90;;;;;;5018513;28;20076;-82
2022/04/14 05:16:26;;;;;;;148.43;56.42;;;6.30;99.90;;;;;;5018339;28;20498;-82
2022/04/14 05:18:51;;;;;;;131.40;53.47;;;6.30;99.90;;;;;;5018562;28;20049;-82
2022/04/14 05:21:17;;;;;;;155.98;57.13;;;6.30;99.90;;;;;;5018239;28;20056;-81
2022/04/14 05:23:43;;;;;;;154.55;57.65;;;6.40;99.90;;;;;;5018372;28;20563;-82
2022/04/14 05:26:08;;;;;;;162.23;59.72;;;6.40;99.90;;;;;;5018378;28;20041;-82
2022/04/14 05:28:34;;;;;;;154.73;58.40;;;6.50;99.90;;;;;;5018448;28;20067;-82
2022/04/14 05:31:00;;;;;;;151.00;58.65;;;6.60;99.90;;;;;;5017006;28;20058;-82
2022/04/14 05:33:26;;;;;;;157.32;60.92;;;6.70;99.90;;;;;;5018283;28;20049;-82
2022/04/14 05:35:51;;;;;;;151.65;60.08;;;6.80;99.90;;;;;;5018162;28;20065;-82
2022/04/14 05:38:17;;;;;;;167.93;63.42;;;6.90;99.90;;;;;;5016699;28;20489;-81
2022/04/14 05:40:45;;;;;;;166.43;62.72;;;7.00;99.90;;;;;;5016742;28;20046;-82
2022/04/14 05:43:17;;;;;;;169.10;62.58;;;7.20;99.90;;;;;;5017581;28;20061;-81
2022/04/14 05:45:49;;;;;;;163.00;62.55;;;7.30;99.90;;;;;;5017627;28;20058;-82
2022/04/14 05:48:16;;;;;;;159.75;63.53;;;7.40;99.90;;;;;;5016910;28;20034;-82
2022/04/14 05:50:42;;;;;;;163.80;62.83;;;7.50;99.90;;;;;;5016762;28;20049;-82
2022/04/14 05:53:08;;;;;;;165.07;67.05;;;7.70;99.90;;;;;;5018582;28;20045;-82
2022/04/14 05:55:35;;;;;;;158.52;67.88;;;7.80;99.90;;;;;;5018054;28;20050;-82
2022/04/14 05:58:03;;;;;;;159.05;66.18;;;7.90;99.90;;;;;;5017791;28;20081;-82
2022/04/14 06:00:29;;;;;;;160.27;66.45;;;8.10;99.90;;;;;;5018782;28;20112;-82
2022/04/14 06:02:59;;;;;;;158.85;64.90;;;8.20;99.90;;;;;;5017846;28;20049;-82
2022/04/14 06:05:29;;;;;;;142.48;61.95;;;8.40;99.90;;;;;;5017591;28;20048;-82
2022/04/14 06:07:55;;;;;;;138.40;60.83;;;8.50;99.90;;;;;;5019532;28;20056;-81
2022/04/14 06:10:25;;;;;;;136.95;63.05;;;8.60;99.90;;;;;;5021639;28;20050;-81
2022/04/14 06:12:51;;;;;;;140.00;60.28;;;8.70;99.90;;;;;;5019981;28;20050;-82
2022/04/14 06:15:17;;;;;;;114.78;55.95;;;8.90;99.90;;;;;;5019916;28;20049;-81
2022/04/14 06:17:44;;;;;;;91.90;47.60;;;10.20;99.90;;;;;;5017474;28;20038;-81
2022/04/14 06:20:11;;;;;;;75.22;41.30;;;10.30;99.90;;;;;;5017452;28;20408;-82
2022/04/14 06:22:43;;;;;;;58.88;36.47;;;10.90;99.90;;;;;;5016713;28;20046;-82
2022/04/14 06:25:14;;;;;;;52.70;32.50;;;11.50;99.90;;;;;;5015554;28;20033;-82
2022/04/14 06:27:44;;;;;;;50.00;28.52;;;12.10;99.90;;;;;;5017266;28;20481;-82
2022/04/14 06:30:11;;;;;;;43.20;25.65;;;12.70;99.90;;;;;;5017641;28;20049;-82
2022/04/14 06:32:37;;;;;;;43.63;24.10;;;13.10;99.90;;;;;;5016886;28;20042;-83
2022/04/14 06:35:06;;;;;;;38.05;22.48;;;13.40;99.90;;;;;;5016228;28;20053;-82
2022/04/14 06:37:33;;;;;;;38.75;23.48;;;13.70;99.90;;;;;;5016379;28;20095;-82
2022/04/14 06:39:58;;;;;;;42.78;22.30;;;14.00;99.90;;;;;;5017007;28;20456;-83
2022/04/14 06:42:24;;;;;;;32.78;20.50;;;14.40;99.90;;;;;;5000465;28;20054;-83
2022/04/14 06:44:50;;;;;;;31.80;21.52;;;14.90;99.90;;;;;;5016356;28;20052;-83
2022/04/14 06:47:15;;;;;;;29.60;20.25;;;14.90;99.90;;;;;;5017814;28;20042;-82
2022/04/14 06:49:41;;;;;;;31.00;20.55;;;15.00;99.90;;;;;;5017964;28;20113;-82
2022/04/14 06:52:07;;;;;;;28.38;19.08;;;15.20;99.90;;;;;;5017546;28;20077;-83
2022/04/14 06:54:33;;;;;;;27.38;17.80;;;15.60;99.90;;;;;;5016436;28;20069;-83
2022/04/14 06:56:59;;;;;;;33.22;19.52;;;16.00;99.90;;;;;;5016332;28;20041;-83
2022/04/14 06:59:25;;;;;;;26.67;17.95;;;16.40;99.90;;;;;;5016133;28;20042;-83
2022/04/14 07:01:50;;;;;;;27.90;17.90;;;16.80;99.90;;;;;;5016586;28;20487;-83
2022/04/14 07:04:16;;;;;;;26.20;17.75;;;16.90;99.90;;;;;;5015610;28;20038;-83
2022/04/14 07:06:41;;;;;;;26.50;16.65;;;16.70;99.90;;;;;;5015618;28;20022;-83
2022/04/14 07:09:07;;;;;;;26.25;18.15;;;16.70;99.90;;;;;;5015900;28;20145;-82
2022/04/14 07:11:33;;;;;;;25.08;17.48;;;17.10;99.90;;;;;;5015556;28;20084;-83
2022/04/14 07:13:59;;;;;;;26.30;16.38;;;17.60;99.90;;;;;;5015520;28;20038;-83
2022/04/14 07:16:25;;;;;;;31.52;18.50;;;17.90;99.90;;;;;;5015595;28;20048;-83
2022/04/14 07:18:50;;;;;;;26.60;17.35;;;17.80;99.90;;;;;;5015580;28;20042;-83
2022/04/14 07:21:16;;;;;;;23.67;15.57;;;17.20;99.90;;;;;;5015520;28;20050;-83
2022/04/14 07:23:42;;;;;;;25.67;16.17;;;16.10;99.90;;;;;;5015854;28;20048;-83
2022/04/14 07:26:08;;;;;;;23.00;15.65;;;15.70;99.90;;;;;;5015819;28;20466;-83
2022/04/14 07:28:33;;;;;;;29.27;18.05;;;15.50;99.90;;;;;;5014720;28;20049;-83
2022/04/14 07:30:59;;;;;;;25.88;16.48;;;15.50;99.90;;;;;;5015963;28;20172;-83
2022/04/14 07:33:25;;;;;;;27.88;17.35;;;15.40;99.90;;;;;;5016267;28;20048;-82
2022/04/14 07:35:52;;;;;;;24.10;15.50;;;15.60;99.90;;;;;;5015165;28;20049;-83
2022/04/14 07:38:18;;;;;;;25.90;15.82;;;16.20;99.90;;;;;;5016316;28;20107;-83
2022/04/14 07:40:43;;;;;;;24.13;15.48;;;16.80;99.90;;;;;;5015696;28;20049;-82
2022/04/14 07:43:09;;;;;;;23.48;14.02;;;17.40;99.90;;;;;;5015720;28;20046;-82
2022/04/14 07:45:35;;;;;;;22.15;13.98;;;17.50;99.90;;;;;;5015741;28;20489;-83
2022/04/14 07:48:01;;;;;;;20.63;13.65;;;17.80;99.90;;;;;;5015432;28;20117;-83
2022/04/14 07:50:26;;;;;;;23.80;13.73;;;18.20;99.90;;;;;;5015038;28;20037;-83
2022/04/14 07:52:56;;;;;;;20.02;13.32;;;18.60;99.90;;;;;;5015880;28;20488;-83
2022/04/14 07:55:24;;;;;;;24.48;14.02;;;18.80;99.90;;;;;;5015144;28;20137;-83
2022/04/14 07:57:51;;;;;;;18.77;12.77;;;19.00;99.90;;;;;;5015445;28;20053;-83
2022/04/14 08:00:18;;;;;;;20.58;13.38;;;19.50;99.90;;;;;;5015128;28;20045;-83
2022/04/14 08:02:47;;;;;;;18.85;13.30;;;19.80;99.90;;;;;;5014912;28;20550;-83
2022/04/14 08:05:12;;;;;;;18.35;12.77;;;20.00;93.60;;;;;;5014608;28;20132;-83
2022/04/14 08:07:38;;;;;;;18.88;13.43;;;19.40;96.20;;;;;;5014994;28;20042;-83
2022/04/14 08:10:04;;;;;;;20.05;14.10;;;19.60;95.40;;;;;;5014697;28;20033;-83
2022/04/14 08:12:30;;;;;;;17.55;12.75;;;19.80;96.20;;;;;;5014995;28;20080;-83
2022/04/14 08:14:55;;;;;;;21.60;14.07;;;20.10;96.50;;;;;;5015248;28;20057;-83
2022/04/14 08:17:21;;;;;;;18.90;13.20;;;20.60;93.90;;;;;;5014476;28;20162;-83
2022/04/14 08:19:49;;;;;;;19.35;13.82;;;20.80;86.90;;;;;;5014929;28;20042;-83
2022/04/14 08:22:15;;;;;;;16.98;11.65;;;20.40;87.40;;;;;;5015298;28;20049;-83
2022/04/14 08:24:41;;;;;;;18.42;13.55;;;20.60;73.80;;;;;;5014780;28;20038;-83
2022/04/14 08:27:06;;;;;;;24.05;15.20;;;20.50;75.40;;;;;;5014610;28;20052;-83
2022/04/14 08:29:32;;;;;;;20.38;14.45;;;20.40;77.80;;;;;;5013200;28;20038;-83
2022/04/14 08:31:58;;;;;;;18.52;13.80;;;20.60;80.80;;;;;;5014317;28;20045;-83
2022/04/14 08:34:24;;;;;;;19.38;13.90;;;21.00;79.10;;;;;;5014922;28;20046;-83
2022/04/14 08:36:52;;;;;;;21.75;14.57;;;21.20;74.90;;;;;;4996747;28;20045;-83
2022/04/14 08:39:18;;;;;;;18.08;13.45;;;21.50;72.80;;;;;;5014835;28;20088;-83
2022/04/14 08:41:48;;;;;;;21.45;13.52;;;21.60;62.70;;;;;;5015048;28;20050;-83
2022/04/14 08:44:17;;;;;;;22.70;14.00;;;21.60;61.60;;;;;;5015228;28;20057;-83
2022/04/14 08:46:43;;;;;;;18.48;13.93;;;21.70;57.70;;;;;;5015351;28;20038;-82
2022/04/14 08:49:09;;;;;;;19.02;13.95;;;21.40;59.30;;;;;;5016504;28;20038;-83
2022/04/14 08:51:36;;;;;;;20.80;14.57;;;21.20;61.90;;;;;;5015431;28;20050;-83
2022/04/14 08:54:02;;;;;;;18.17;13.88;;;21.10;66.90;;;;;;5015292;28;20073;-84
2022/04/14 08:56:29;;;;;;;20.05;14.27;;;21.30;65.10;;;;;;5016124;28;20057;-83
2022/04/14 08:58:55;;;;;;;21.95;15.70;;;21.30;58.20;;;;;;5015278;28;20066;-82
2022/04/14 09:01:26;;;;;;;19.08;14.90;;;21.20;56.40;;;;;;5015601;28;20042;-83
2022/04/14 09:03:56;;;;;;;17.83;14.15;;;21.00;65.80;;;;;;5016290;28;20045;-83
2022/04/14 09:06:22;;;;;;;21.00;15.23;;;21.50;67.20;;;;;;5030611;28;20046;-83
2022/04/14 09:08:48;;;;;;;20.13;14.75;;;21.80;59.70;;;;;;5014201;28;20410;-83
2022/04/14 09:11:14;;;;;;;22.35;15.05;;;21.70;56.40;;;;;;4998555;28;20081;-83
2022/04/14 09:13:43;;;;;;;23.75;16.20;;;21.80;51.90;;;;;;5015684;28;20437;-83
2022/04/14 09:16:09;;;;;;;22.13;14.90;;;22.20;47.20;;;;;;5024089;28;20076;-83
2022/04/14 09:18:35;;;;;;;25.27;15.02;;;21.80;45.50;;;;;;5035546;28;20095;-83
2022/04/14 09:21:05;;;;;;;20.15;14.85;;;21.50;44.90;;;;;;5026632;28;20489;-83
2022/04/14 09:23:31;;;;;;;18.90;14.15;;;21.10;46.00;;;;;;5016096;28;20064;-83
2022/04/14 09:26:02;;;;;;;17.75;13.43;;;21.00;45.70;;;;;;5015650;28;20042;-83
2022/04/14 09:28:28;;;;;;;18.65;14.63;;;20.70;50.10;;;;;;5015113;28;20046;-83
2022/04/14 09:31:03;;;;;;;19.88;14.32;;;20.50;56.20;;;;;;5016043;28;20042;-83
2022/04/14 09:33:30;;;;;;;21.38;15.00;;;20.90;57.00;;;;;;5014590;28;20132;-83
2022/04/14 09:36:15;;;;;;;20.58;12.38;;;21.60;53.50;;;;;;5014777;28;20500;-83
2022/04/14 09:38:53;;;;;;;15.60;11.45;;;22.00;47.00;;;;;;5015549;28;20057;-83
2022/04/14 09:41:38;;;;;;;19.77;12.93;;;21.90;44.50;;;;;;5015626;28;20038;-83
2022/04/14 09:44:08;;;;;;;18.92;11.35;;;21.90;41.40;;;;;;5018677;28;20053;-82
2022/04/14 09:46:38;;;;;;;16.27;10.80;;;21.90;38.20;;;;;;5017816;28;20096;-83
2022/04/14 09:49:09;;;;;;;14.38;9.98;;;21.70;37.10;;;;;;5017312;28;20121;-83
2022/04/14 09:51:37;;;;;;;12.57;8.98;;;21.50;39.00;;;;;;5017579;28;20079;-83
2022/04/14 09:54:17;;;;;;;15.63;9.95;;;21.50;39.70;;;;;;5018540;28;20121;-83
2022/04/14 09:56:51;;;;;;;12.27;9.10;;;21.20;40.20;;;;;;5019156;28;20148;-83
2022/04/14 09:59:25;;;;;;;14.02;9.55;;;21.10;37.60;;;;;;5019009;28;20474;-83
2022/04/14 10:02:16;;;;;;;12.77;9.50;;;20.60;42.40;;;;;;5018707;28;20045;-83
2022/04/14 10:04:48;;;;;;;10.65;6.43;;;20.20;57.40;;;;;;5016287;28;20050;-83
2022/04/14 10:07:20;;;;;;;11.95;7.70;;;20.10;52.40;;;;;;5018432;28;20475;-83
2022/04/14 10:09:53;;;;;;;8.88;6.40;;;19.80;49.10;;;;;;5018149;28;20400;-83
2022/04/14 10:12:24;;;;;;;10.88;6.63;;;19.50;54.20;;;;;;5017840;28;20045;-83
2022/04/14 10:14:56;;;;;;;11.57;8.00;;;19.20;61.10;;;;;;5018306;28;20046;-83
2022/04/14 10:17:24;;;;;;;11.18;6.95;;;19.00;64.20;;;;;;5017496;28;20045;-83
2022/04/14 10:19:53;;;;;;;12.05;5.70;;;18.80;66.70;;;;;;5019448;28;20113;-82
2022/04/14 10:22:19;;;;;;;10.73;5.65;;;18.50;73.20;;;;;;5018490;28;20045;-83
2022/04/14 10:24:46;;;;;;;12.68;5.43;;;18.30;75.90;;;;;;5017919;28;20128;-83
2022/04/14 10:27:13;;;;;;;8.73;5.40;;;18.20;79.80;;;;;;5018254;28;20046;-83
2022/04/14 10:29:41;;;;;;;9.73;5.30;;;18.30;77.50;;;;;;5019180;28;20571;-83
2022/04/14 10:32:07;;;;;;;8.93;6.25;;;18.70;79.30;;;;;;5018763;28;20099;-83
2022/04/14 10:34:33;;;;;;;11.32;5.63;;;19.30;67.70;;;;;;5031484;28;20044;-83
2022/04/14 10:37:01;;;;;;;12.05;5.93;;;19.80;60.20;;;;;;5035927;28;20030;-83
2022/04/14 10:39:29;;;;;;;13.00;5.10;;;20.00;61.90;;;;;;5037382;28;20101;-82
2022/04/14 10:41:56;;;;;;;6.35;3.88;;;19.50;50.90;;;;;;5037585;28;20033;-83
2022/04/14 10:44:22;;;;;;;6.60;3.45;;;19.30;55.80;;;;;;5023198;28;20073;-83
2022/04/14 10:46:50;;;;;;;8.73;4.32;;;19.10;57.10;;;;;;5020146;28;20519;-84
2022/04/14 10:49:21;;;;;;;10.10;4.10;;;19.00;58.70;;;;;;5019993;28;20045;-83
2022/04/14 10:51:47;;;;;;;8.57;4.35;;;19.10;59.80;;;;;;5017830;28;20105;-83
2022/04/14 10:54:15;;;;;;;6.88;3.78;;;19.60;54.00;;;;;;5017672;28;20073;-83
2022/04/14 10:56:46;;;;;;;6.55;3.92;;;20.10;57.10;;;;;;5017678;28;20108;-83
2022/04/14 10:59:15;;;;;;;7.55;3.65;;;20.60;50.40;;;;;;5017372;28;20058;-83
2022/04/14 11:01:50;;;;;;;5.63;3.47;;;21.20;37.00;;;;;;5016252;28;20502;-83
2022/04/14 11:04:29;;;;;;;6.38;3.40;;;21.20;41.40;;;;;;5016151;28;20050;-83
2022/04/14 11:07:01;;;;;;;7.38;3.30;;;21.30;35.00;;;;;;5016650;28;20455;-83
2022/04/14 11:09:38;;;;;;;6.03;3.25;;;20.30;36.30;;;;;;5016465;28;20095;-84
2022/04/14 11:12:09;;;;;;;7.75;3.67;;;19.90;39.70;;;;;;5015778;28;20050;-83
2022/04/14 11:14:43;;;;;;;7.57;3.80;;;19.70;46.50;;;;;;5016210;28;20050;-84
2022/04/14 11:20:12;;;;;;;5.43;2.53;;;20.40;42.80;;;;;;5015725;28;20054;-83
2022/04/14 11:23:07;;;;;;;6.90;2.90;;;21.00;40.40;;;;;;5016544;28;20056;-83
2022/04/14 11:25:39;;;;;;;4.13;2.00;;;21.20;32.10;;;;;;5016217;28;20067;-83
2022/04/14 11:28:27;;;;;;;4.65;2.25;;;21.40;28.10;;;;;;5015349;28;20042;-83
2022/04/14 11:30:58;;;;;;;5.75;2.53;;;22.10;28.70;;;;;;5016727;28;20076;-83
2022/04/14 11:33:28;;;;;;;8.63;2.40;;;22.30;28.10;;;;;;5030507;28;20037;-83
2022/04/14 11:35:54;;;;;;;5.28;2.53;;;22.50;30.90;;;;;;5014941;28;20073;-83
2022/04/14 11:38:57;;;;;;;7.65;3.33;;;21.40;29.90;;;;;;5016156;28;20046;-83
2022/04/14 11:41:39;;;;;;;7.47;2.63;;;20.10;40.80;;;;;;5014695;28;20488;-83
2022/04/14 11:44:19;;;;;;;6.57;2.58;;;20.10;42.10;;;;;;5013921;28;20061;-83
2022/04/14 11:46:54;;;;;;;5.90;2.20;;;19.40;45.80;;;;;;5013120;28;20046;-83
2022/04/14 11:49:22;;;;;;;4.22;2.00;;;19.50;46.70;;;;;;5014078;28;20046;-84
2022/04/14 11:51:50;;;;;;;5.82;2.50;;;19.00;47.10;;;;;;5013277;28;20104;-83
2022/04/14 11:54:31;;;;;;;4.97;1.80;;;19.10;43.80;;;;;;5014435;28;20038;-83
2022/04/14 11:57:07;;;;;;;4.82;1.95;;;18.70;47.50;;;;;;5014165;28;20050;-83
2022/04/14 11:59:51;;;;;;;7.93;1.90;;;19.40;46.40;;;;;;5014563;28;20038;-83
2022/04/14 12:02:22;;;;;;;5.72;1.52;;;20.00;39.60;;;;;;5012792;28;20077;-83
2022/04/14 12:04:49;;;;;;;6.15;2.67;;;20.30;30.60;;;;;;5013819;28;20073;-83
2022/04/14 12:07:16;;;;;;;5.43;1.65;;;20.70;32.80;;;;;;5014368;28;20041;-83
2022/04/14 12:09:42;;;;;;;4.88;1.83;;;21.20;30.70;;;;;;5014831;28;20496;-83
2022/04/14 12:12:16;;;;;;;4.40;1.52;;;21.30;29.30;;;;;;5014126;28;20038;-83
2022/04/14 12:14:42;;;;;;;5.10;1.83;;;20.80;30.10;;;;;;5014358;28;20100;-83
2022/04/14 12:17:08;;;;;;;5.70;2.05;;;20.50;28.40;;;;;;5014003;28;20049;-83
2022/04/14 12:19:50;;;;;;;5.53;1.98;;;20.80;28.90;;;;;;5014455;28;20038;-83
2022/04/14 12:22:15;;;;;;;5.45;1.70;;;21.40;26.60;;;;;;5012498;28;20105;-83
2022/04/14 12:24:48;;;;;;;8.45;1.80;;;21.70;24.80;;;;;;5012743;28;20077;-83
2022/04/14 12:27:26;;;;;;;5.93;1.73;;;21.60;27.20;;;;;;5013844;28;20046;-83
2022/04/14 12:29:53;;;;;;;7.45;2.10;;;21.80;25.60;;;;;;5014171;28;20046;-84
2022/04/14 12:32:27;;;;;;;7.78;2.20;;;22.00;22.30;;;;;;5014004;28;20125;-84
2022/04/14 12:34:53;;;;;;;6.45;3.28;;;21.80;27.90;;;;;;5013922;28;20172;-83
2022/04/14 12:37:19;;;;;;;6.70;3.40;;;21.50;28.90;;;;;;5013790;28;20053;-83
2022/04/14 12:39:54;;;;;;;9.68;3.47;;;20.90;30.50;;;;;;5014548;28;20438;-83
2022/04/14 12:42:24;;;;;;;7.40;2.90;;;20.40;34.20;;;;;;5013855;28;20058;-83